sensor_id;sensor_type;location;lat;lon;timestamp;temperature;humidity
52415;DHT22;38340;52.964;6.086;2023-04-15T00:01:22;6.30;99.90
52415;DHT22;38340;52.964;6.086;2023-04-15T00:03:50;6.30;99.90
52415;DHT22;38340;52.964;6.086;2023-04-15T00:06:17;6.20;99.90
52415;DHT22;38340;52.964;6.086;2023-04-15T00:08:44;6.20;99.90
52415;DHT22;38340;52.964;6.086;2023-04-15T00:11:10;6.20;99.90
52415;DHT22;38340;52.964;6.086;2023-04-15T00:13:36;6.20;99.90
52415;DHT22;38340;52.964;6.086;2023-04-15T00:16:02;6.10;99.90
52415;DHT22;38340;52.964;6.086;2023-04-15T00:18:28;6.10;99.90
52415;DHT22;38340;52.964;6.086;2023-04-15T00:20:56;6.10;99.90
52415;DHT22;38340;52.964;6.086;2023-04-15T00:23:22;6.10;99.90
52415;DHT22;38340;52.964;6.086;2023-04-15T00:25:48;6.10;99.90
52415;DHT22;38340;52.964;6.086;2023-04-15T00:28:14;6.00;99.90
52415;DHT22;38340;52.964;6.086;2023-04-15T00:30:39;6.00;99.90
52415;DHT22;38340;52.964;6.086;2023-04-15T00:33:06;5.90;99.90
52415;DHT22;38340;52.964;6.086;2023-04-15T00:35:32;6.00;99.90
52415;DHT22;38340;52.964;6.086;2023-04-15T00:37:58;5.90;99.90
52415;DHT22;38340;52.964;6.086;2023-04-15T00:40:24;5.80;99.90
52415;DHT22;38340;52.964;6.086;2023-04-15T00:42:51;5.80;99.90
52415;DHT22;38340;52.964;6.086;2023-04-15T00:45:17;5.80;99.90
52415;DHT22;38340;52.964;6.086;2023-04-15T00:47:43;5.80;99.90
52415;DHT22;38340;52.964;6.086;2023-04-15T00:50:10;5.80;99.90
52415;DHT22;38340;52.964;6.086;2023-04-15T00:52:37;5.70;99.90
52415;DHT22;38340;52.964;6.086;2023-04-15T00:55:04;5.70;99.90
52415;DHT22;38340;52.964;6.086;2023-04-15T00:57:30;5.70;99.90
52415;DHT22;38340;52.964;6.086;2023-04-15T00:59:56;5.70;99.90
52415;DHT22;38340;52.964;6.086;2023-04-15T01:02:23;5.70;99.90
52415;DHT22;38340;52.964;6.086;2023-04-15T01:04:49;5.70;99.90
52415;DHT22;38340;52.964;6.086;2023-04-15T01:07:15;5.70;99.90
52415;DHT22;38340;52.964;6.086;2023-04-15T01:09:42;5.70;99.90
52415;DHT22;38340;52.964;6.086;2023-04-15T01:12:09;5.70;99.90
52415;DHT22;38340;52.964;6.086;2023-04-15T01:14:36;5.70;99.90
52415;DHT22;38340;52.964;6.086;2023-04-15T01:17:02;5.60;99.90
52415;DHT22;38340;52.964;6.086;2023-04-15T01:19:27;5.60;99.90
52415;DHT22;38340;52.964;6.086;2023-04-15T01:21:54;5.60;99.90
52415;DHT22;38340;52.964;6.086;2023-04-15T01:24:19;5.60;99.90
52415;DHT22;38340;52.964;6.086;2023-04-15T01:26:46;5.60;99.90
52415;DHT22;38340;52.964;6.086;2023-04-15T01:29:13;5.50;99.90
52415;DHT22;38340;52.964;6.086;2023-04-15T01:31:39;5.50;99.90
52415;DHT22;38340;52.964;6.086;2023-04-15T01:34:05;5.50;99.90
52415;DHT22;38340;52.964;6.086;2023-04-15T01:36:31;5.50;99.90
52415;DHT22;38340;52.964;6.086;2023-04-15T01:38:57;5.50;99.90
52415;DHT22;38340;52.964;6.086;2023-04-15T01:41:27;5.40;99.90
52415;DHT22;38340;52.964;6.086;2023-04-15T01:43:54;5.40;99.90
52415;DHT22;38340;52.964;6.086;2023-04-15T01:46:19;5.40;99.90
52415;DHT22;38340;52.964;6.086;2023-04-15T01:48:45;5.40;99.90
52415;DHT22;38340;52.964;6.086;2023-04-15T01:51:11;5.40;99.90
52415;DHT22;38340;52.964;6.086;2023-04-15T01:53:37;5.40;99.90
52415;DHT22;38340;52.964;6.086;2023-04-15T01:56:03;5.40;99.90
52415;DHT22;38340;52.964;6.086;2023-04-15T01:58:29;5.40;99.90
52415;DHT22;38340;52.964;6.086;2023-04-15T02:00:55;5.40;99.90
52415;DHT22;38340;52.964;6.086;2023-04-15T02:03:21;5.40;99.90
52415;DHT22;38340;52.964;6.086;2023-04-15T02:05:46;5.40;99.90
52415;DHT22;38340;52.964;6.086;2023-04-15T02:08:12;5.30;99.90
52415;DHT22;38340;52.964;6.086;2023-04-15T02:10:38;5.30;99.90
52415;DHT22;38340;52.964;6.086;2023-04-15T02:13:04;5.30;99.90
52415;DHT22;38340;52.964;6.086;2023-04-15T02:15:29;5.30;99.90
52415;DHT22;38340;52.964;6.086;2023-04-15T02:17:55;5.30;99.90
52415;DHT22;38340;52.964;6.086;2023-04-15T02:20:21;5.30;99.90
52415;DHT22;38340;52.964;6.086;2023-04-15T02:22:48;5.20;99.90
52415;DHT22;38340;52.964;6.086;2023-04-15T02:25:14;5.20;99.90
52415;DHT22;38340;52.964;6.086;2023-04-15T02:27:41;5.20;99.90
52415;DHT22;38340;52.964;6.086;2023-04-15T02:30:09;5.10;99.90
52415;DHT22;38340;52.964;6.086;2023-04-15T02:32:34;5.00;99.90
52415;DHT22;38340;52.964;6.086;2023-04-15T02:35:06;5.00;99.90
52415;DHT22;38340;52.964;6.086;2023-04-15T02:37:34;5.00;99.90
52415;DHT22;38340;52.964;6.086;2023-04-15T02:40:08;5.00;99.90
52415;DHT22;38340;52.964;6.086;2023-04-15T02:42:37;5.00;99.90
52415;DHT22;38340;52.964;6.086;2023-04-15T02:45:04;4.90;99.90
52415;DHT22;38340;52.964;6.086;2023-04-15T02:47:30;4.90;99.90
52415;DHT22;38340;52.964;6.086;2023-04-15T02:49:56;4.90;99.90
52415;DHT22;38340;52.964;6.086;2023-04-15T02:52:23;4.90;99.90
52415;DHT22;38340;52.964;6.086;2023-04-15T02:54:49;4.80;99.90
52415;DHT22;38340;52.964;6.086;2023-04-15T02:57:15;4.90;99.90
52415;DHT22;38340;52.964;6.086;2023-04-15T02:59:40;4.80;99.90
52415;DHT22;38340;52.964;6.086;2023-04-15T03:02:06;4.80;99.90
52415;DHT22;38340;52.964;6.086;2023-04-15T03:04:33;4.80;99.90
52415;DHT22;38340;52.964;6.086;2023-04-15T03:07:00;4.80;99.90
52415;DHT22;38340;52.964;6.086;2023-04-15T03:09:26;4.80;99.90
52415;DHT22;38340;52.964;6.086;2023-04-15T03:11:52;4.70;99.90
52415;DHT22;38340;52.964;6.086;2023-04-15T03:14:19;4.70;99.90
52415;DHT22;38340;52.964;6.086;2023-04-15T03:16:45;4.70;99.90
52415;DHT22;38340;52.964;6.086;2023-04-15T03:19:10;4.60;99.90
52415;DHT22;38340;52.964;6.086;2023-04-15T03:21:36;4.60;99.90
52415;DHT22;38340;52.964;6.086;2023-04-15T03:24:02;4.60;99.90
52415;DHT22;38340;52.964;6.086;2023-04-15T03:26:29;4.60;99.90
52415;DHT22;38340;52.964;6.086;2023-04-15T03:28:55;4.50;99.90
52415;DHT22;38340;52.964;6.086;2023-04-15T03:31:21;4.50;99.90
52415;DHT22;38340;52.964;6.086;2023-04-15T03:33:47;4.40;99.90
52415;DHT22;38340;52.964;6.086;2023-04-15T03:36:12;4.40;99.90
52415;DHT22;38340;52.964;6.086;2023-04-15T03:38:38;4.40;99.90
52415;DHT22;38340;52.964;6.086;2023-04-15T03:41:04;4.40;99.90
52415;DHT22;38340;52.964;6.086;2023-04-15T03:43:30;4.40;99.90
52415;DHT22;38340;52.964;6.086;2023-04-15T03:45:56;4.40;99.90
52415;DHT22;38340;52.964;6.086;2023-04-15T03:48:21;4.40;99.90
52415;DHT22;38340;52.964;6.086;2023-04-15T03:50:47;4.40;99.90
52415;DHT22;38340;52.964;6.086;2023-04-15T03:53:13;4.40;99.90
52415;DHT22;38340;52.964;6.086;2023-04-15T03:55:39;4.40;99.90
52415;DHT22;38340;52.964;6.086;2023-04-15T03:58:06;4.40;99.90
52415;DHT22;38340;52.964;6.086;2023-04-15T04:00:32;4.40;99.90
52415;DHT22;38340;52.964;6.086;2023-04-15T04:02:58;4.40;99.90
52415;DHT22;38340;52.964;6.086;2023-04-15T04:05:23;4.40;99.90
52415;DHT22;38340;52.964;6.086;2023-04-15T04:07:49;4.40;99.90
52415;DHT22;38340;52.964;6.086;2023-04-15T04:10:15;4.40;99.90
52415;DHT22;38340;52.964;6.086;2023-04-15T04:12:40;4.30;99.90
52415;DHT22;38340;52.964;6.086;2023-04-15T04:15:06;4.20;99.90
52415;DHT22;38340;52.964;6.086;2023-04-15T04:17:33;4.20;99.90
52415;DHT22;38340;52.964;6.086;2023-04-15T04:19:58;4.20;99.90
52415;DHT22;38340;52.964;6.086;2023-04-15T04:22:24;4.20;99.90
52415;DHT22;38340;52.964;6.086;2023-04-15T04:24:50;4.20;99.90
52415;DHT22;38340;52.964;6.086;2023-04-15T04:27:15;4.10;99.90
52415;DHT22;38340;52.964;6.086;2023-04-15T04:29:41;4.10;99.90
52415;DHT22;38340;52.964;6.086;2023-04-15T04:32:07;4.10;99.90
52415;DHT22;38340;52.964;6.086;2023-04-15T04:34:33;4.10;99.90
52415;DHT22;38340;52.964;6.086;2023-04-15T04:36:59;4.10;99.90
52415;DHT22;38340;52.964;6.086;2023-04-15T04:39:24;4.10;99.90
52415;DHT22;38340;52.964;6.086;2023-04-15T04:41:50;4.10;99.90
52415;DHT22;38340;52.964;6.086;2023-04-15T04:44:17;4.10;99.90
52415;DHT22;38340;52.964;6.086;2023-04-15T04:46:42;4.10;99.90
52415;DHT22;38340;52.964;6.086;2023-04-15T04:49:08;4.10;99.90
52415;DHT22;38340;52.964;6.086;2023-04-15T04:51:34;4.20;99.90
52415;DHT22;38340;52.964;6.086;2023-04-15T04:54:00;4.20;99.90
52415;DHT22;38340;52.964;6.086;2023-04-15T04:56:26;4.20;99.90
52415;DHT22;38340;52.964;6.086;2023-04-15T04:58:52;4.20;99.90
52415;DHT22;38340;52.964;6.086;2023-04-15T05:01:17;4.20;99.90
52415;DHT22;38340;52.964;6.086;2023-04-15T05:03:43;4.20;99.90
52415;DHT22;38340;52.964;6.086;2023-04-15T05:06:09;4.20;99.90
52415;DHT22;38340;52.964;6.086;2023-04-15T05:08:35;4.10;99.90
52415;DHT22;38340;52.964;6.086;2023-04-15T05:11:01;4.10;99.90
52415;DHT22;38340;52.964;6.086;2023-04-15T05:13:27;4.10;99.90
52415;DHT22;38340;52.964;6.086;2023-04-15T05:15:54;4.10;99.90
52415;DHT22;38340;52.964;6.086;2023-04-15T05:18:21;4.20;99.90
52415;DHT22;38340;52.964;6.086;2023-04-15T05:20:46;4.20;99.90
52415;DHT22;38340;52.964;6.086;2023-04-15T05:23:14;4.30;99.90
52415;DHT22;38340;52.964;6.086;2023-04-15T05:25:41;4.30;99.90
52415;DHT22;38340;52.964;6.086;2023-04-15T05:28:06;4.30;99.90
52415;DHT22;38340;52.964;6.086;2023-04-15T05:30:32;4.30;99.90
52415;DHT22;38340;52.964;6.086;2023-04-15T05:32:58;4.30;99.90
52415;DHT22;38340;52.964;6.086;2023-04-15T05:35:23;4.30;99.90
52415;DHT22;38340;52.964;6.086;2023-04-15T05:37:49;4.30;99.90
52415;DHT22;38340;52.964;6.086;2023-04-15T05:40:15;4.40;99.90
52415;DHT22;38340;52.964;6.086;2023-04-15T05:42:40;4.50;99.90
52415;DHT22;38340;52.964;6.086;2023-04-15T05:45:06;4.50;99.90
52415;DHT22;38340;52.964;6.086;2023-04-15T05:47:35;4.60;99.90
52415;DHT22;38340;52.964;6.086;2023-04-15T05:50:02;4.70;99.90
52415;DHT22;38340;52.964;6.086;2023-04-15T05:52:27;4.70;99.90
52415;DHT22;38340;52.964;6.086;2023-04-15T05:54:53;4.80;99.90
52415;DHT22;38340;52.964;6.086;2023-04-15T05:57:19;5.00;99.90
52415;DHT22;38340;52.964;6.086;2023-04-15T05:59:45;5.10;99.90
52415;DHT22;38340;52.964;6.086;2023-04-15T06:02:11;5.30;99.90
52415;DHT22;38340;52.964;6.086;2023-04-15T06:04:37;5.40;99.90
52415;DHT22;38340;52.964;6.086;2023-04-15T06:07:03;5.50;99.90
52415;DHT22;38340;52.964;6.086;2023-04-15T06:09:29;5.60;99.90
52415;DHT22;38340;52.964;6.086;2023-04-15T06:11:55;5.60;99.90
52415;DHT22;38340;52.964;6.086;2023-04-15T06:14:22;5.70;99.90
52415;DHT22;38340;52.964;6.086;2023-04-15T06:16:48;5.80;99.90
52415;DHT22;38340;52.964;6.086;2023-04-15T06:19:13;5.90;99.90
52415;DHT22;38340;52.964;6.086;2023-04-15T06:21:39;6.00;99.90
52415;DHT22;38340;52.964;6.086;2023-04-15T06:24:05;6.00;99.90
52415;DHT22;38340;52.964;6.086;2023-04-15T06:26:32;6.10;99.90
52415;DHT22;38340;52.964;6.086;2023-04-15T06:28:57;6.10;99.90
52415;DHT22;38340;52.964;6.086;2023-04-15T06:31:23;6.20;99.90
52415;DHT22;38340;52.964;6.086;2023-04-15T06:33:49;6.20;99.90
52415;DHT22;38340;52.964;6.086;2023-04-15T06:36:15;6.30;99.90
52415;DHT22;38340;52.964;6.086;2023-04-15T06:38:40;6.40;99.90
52415;DHT22;38340;52.964;6.086;2023-04-15T06:41:06;6.50;99.90
52415;DHT22;38340;52.964;6.086;2023-04-15T06:43:32;6.50;99.90
52415;DHT22;38340;52.964;6.086;2023-04-15T06:45:58;6.60;99.90
52415;DHT22;38340;52.964;6.086;2023-04-15T06:48:23;6.70;99.90
52415;DHT22;38340;52.964;6.086;2023-04-15T06:50:49;6.80;99.90
52415;DHT22;38340;52.964;6.086;2023-04-15T06:53:15;7.00;99.90
52415;DHT22;38340;52.964;6.086;2023-04-15T06:55:41;7.10;99.90
52415;DHT22;38340;52.964;6.086;2023-04-15T06:58:07;7.30;99.90
52415;DHT22;38340;52.964;6.086;2023-04-15T07:00:32;7.40;99.90
52415;DHT22;38340;52.964;6.086;2023-04-15T07:03:01;7.60;99.90
52415;DHT22;38340;52.964;6.086;2023-04-15T07:05:28;7.70;99.90
52415;DHT22;38340;52.964;6.086;2023-04-15T07:07:55;7.80;99.90
52415;DHT22;38340;52.964;6.086;2023-04-15T07:10:21;7.90;99.90
52415;DHT22;38340;52.964;6.086;2023-04-15T07:12:48;8.00;99.90
52415;DHT22;38340;52.964;6.086;2023-04-15T07:15:15;8.10;99.90
52415;DHT22;38340;52.964;6.086;2023-04-15T07:17:41;8.20;99.90
52415;DHT22;38340;52.964;6.086;2023-04-15T07:20:08;8.30;99.90
52415;DHT22;38340;52.964;6.086;2023-04-15T07:22:34;8.30;99.90
52415;DHT22;38340;52.964;6.086;2023-04-15T07:25:00;8.50;99.90
52415;DHT22;38340;52.964;6.086;2023-04-15T07:27:25;8.50;99.90
52415;DHT22;38340;52.964;6.086;2023-04-15T07:29:51;8.60;99.90
52415;DHT22;38340;52.964;6.086;2023-04-15T07:32:18;8.70;99.90
52415;DHT22;38340;52.964;6.086;2023-04-15T07:34:44;8.80;99.90
52415;DHT22;38340;52.964;6.086;2023-04-15T07:37:10;8.90;99.90
52415;DHT22;38340;52.964;6.086;2023-04-15T07:39:36;9.00;99.90
52415;DHT22;38340;52.964;6.086;2023-04-15T07:42:02;9.10;99.90
52415;DHT22;38340;52.964;6.086;2023-04-15T07:44:29;9.10;99.90
52415;DHT22;38340;52.964;6.086;2023-04-15T07:46:55;9.10;99.90
52415;DHT22;38340;52.964;6.086;2023-04-15T07:49:21;9.10;99.90
52415;DHT22;38340;52.964;6.086;2023-04-15T07:51:47;9.10;99.90
52415;DHT22;38340;52.964;6.086;2023-04-15T07:54:14;9.20;99.90
52415;DHT22;38340;52.964;6.086;2023-04-15T07:56:40;9.20;99.90
52415;DHT22;38340;52.964;6.086;2023-04-15T07:59:06;9.30;99.90
52415;DHT22;38340;52.964;6.086;2023-04-15T08:01:31;9.50;99.90
52415;DHT22;38340;52.964;6.086;2023-04-15T08:03:58;9.60;99.90
52415;DHT22;38340;52.964;6.086;2023-04-15T08:06:24;9.80;99.90
52415;DHT22;38340;52.964;6.086;2023-04-15T08:08:49;9.90;99.90
52415;DHT22;38340;52.964;6.086;2023-04-15T08:11:15;10.00;99.90
52415;DHT22;38340;52.964;6.086;2023-04-15T08:13:41;10.10;99.90
52415;DHT22;38340;52.964;6.086;2023-04-15T08:16:24;10.20;99.90
52415;DHT22;38340;52.964;6.086;2023-04-15T08:18:52;10.20;99.90
52415;DHT22;38340;52.964;6.086;2023-04-15T08:21:19;10.20;99.90
52415;DHT22;38340;52.964;6.086;2023-04-15T08:23:46;10.20;99.90
52415;DHT22;38340;52.964;6.086;2023-04-15T08:26:12;10.30;99.90
52415;DHT22;38340;52.964;6.086;2023-04-15T08:28:39;10.40;99.90
52415;DHT22;38340;52.964;6.086;2023-04-15T08:31:06;10.50;99.90
52415;DHT22;38340;52.964;6.086;2023-04-15T08:33:32;10.70;99.90
52415;DHT22;38340;52.964;6.086;2023-04-15T08:35:57;10.70;80.90
52415;DHT22;38340;52.964;6.086;2023-04-15T08:38:23;10.70;1.00
52415;DHT22;38340;52.964;6.086;2023-04-15T08:40:49;10.80;1.00
52415;DHT22;38340;52.964;6.086;2023-04-15T08:43:33;10.70;99.90
52415;DHT22;38340;52.964;6.086;2023-04-15T08:46:00;10.70;99.90
52415;DHT22;38340;52.964;6.086;2023-04-15T08:48:28;10.50;99.90
52415;DHT22;38340;52.964;6.086;2023-04-15T08:50:57;10.40;99.90
52415;DHT22;38340;52.964;6.086;2023-04-15T08:53:24;10.40;99.90
52415;DHT22;38340;52.964;6.086;2023-04-15T08:55:51;10.40;99.90
52415;DHT22;38340;52.964;6.086;2023-04-15T08:58:18;10.30;99.90
52415;DHT22;38340;52.964;6.086;2023-04-15T09:00:44;10.20;1.00
52415;DHT22;38340;52.964;6.086;2023-04-15T09:03:10;10.20;1.00
52415;DHT22;38340;52.964;6.086;2023-04-15T09:05:36;10.20;1.00
52415;DHT22;38340;52.964;6.086;2023-04-15T09:08:03;10.30;1.00
52415;DHT22;38340;52.964;6.086;2023-04-15T09:10:30;10.40;99.90
52415;DHT22;38340;52.964;6.086;2023-04-15T09:12:58;10.50;1.00
52415;DHT22;38340;52.964;6.086;2023-04-15T09:15:24;10.50;99.90
52415;DHT22;38340;52.964;6.086;2023-04-15T09:17:51;10.50;99.90
52415;DHT22;38340;52.964;6.086;2023-04-15T09:20:17;10.40;99.90
52415;DHT22;38340;52.964;6.086;2023-04-15T09:22:44;10.50;99.90
52415;DHT22;38340;52.964;6.086;2023-04-15T09:27:56;10.40;99.90
52415;DHT22;38340;52.964;6.086;2023-04-15T09:30:22;10.30;99.90
52415;DHT22;38340;52.964;6.086;2023-04-15T09:32:55;10.30;99.90
52415;DHT22;38340;52.964;6.086;2023-04-15T09:35:22;10.40;99.90
52415;DHT22;38340;52.964;6.086;2023-04-15T09:37:49;10.50;1.00
52415;DHT22;38340;52.964;6.086;2023-04-15T09:40:30;10.60;99.90
52415;DHT22;38340;52.964;6.086;2023-04-15T09:42:58;10.50;99.90
52415;DHT22;38340;52.964;6.086;2023-04-15T09:45:24;10.40;99.90
52415;DHT22;38340;52.964;6.086;2023-04-15T09:47:50;10.50;99.90
52415;DHT22;38340;52.964;6.086;2023-04-15T09:50:17;10.50;99.90
52415;DHT22;38340;52.964;6.086;2023-04-15T09:52:43;10.50;99.90
52415;DHT22;38340;52.964;6.086;2023-04-15T09:55:10;10.60;99.90
52415;DHT22;38340;52.964;6.086;2023-04-15T09:57:37;10.70;99.90
52415;DHT22;38340;52.964;6.086;2023-04-15T10:00:05;10.80;99.90
52415;DHT22;38340;52.964;6.086;2023-04-15T10:02:33;10.90;99.90
52415;DHT22;38340;52.964;6.086;2023-04-15T10:05:00;11.00;75.60
52415;DHT22;38340;52.964;6.086;2023-04-15T10:07:26;11.00;1.00
52415;DHT22;38340;52.964;6.086;2023-04-15T10:09:52;11.10;37.80
52415;DHT22;38340;52.964;6.086;2023-04-15T10:12:19;11.00;1.00
52415;DHT22;38340;52.964;6.086;2023-04-15T10:14:55;11.00;1.00
52415;DHT22;38340;52.964;6.086;2023-04-15T10:17:26;11.20;1.00
52415;DHT22;38340;52.964;6.086;2023-04-15T10:19:53;11.20;99.90
52415;DHT22;38340;52.964;6.086;2023-04-15T10:22:20;11.30;1.00
52415;DHT22;38340;52.964;6.086;2023-04-15T10:24:46;11.30;99.90
52415;DHT22;38340;52.964;6.086;2023-04-15T10:27:13;11.20;1.00
52415;DHT22;38340;52.964;6.086;2023-04-15T10:29:39;11.20;1.00
52415;DHT22;38340;52.964;6.086;2023-04-15T10:32:05;11.20;1.00
52415;DHT22;38340;52.964;6.086;2023-04-15T10:34:31;11.10;1.00
52415;DHT22;38340;52.964;6.086;2023-04-15T10:37:00;11.10;1.00
52415;DHT22;38340;52.964;6.086;2023-04-15T10:39:37;11.20;1.00
52415;DHT22;38340;52.964;6.086;2023-04-15T10:42:15;11.00;1.00
52415;DHT22;38340;52.964;6.086;2023-04-15T10:44:43;11.20;1.00
52415;DHT22;38340;52.964;6.086;2023-04-15T10:47:14;11.20;1.00
52415;DHT22;38340;52.964;6.086;2023-04-15T10:49:57;11.10;99.90
52415;DHT22;38340;52.964;6.086;2023-04-15T10:52:24;11.20;1.00
52415;DHT22;38340;52.964;6.086;2023-04-15T10:55:13;11.00;1.00
52415;DHT22;38340;52.964;6.086;2023-04-15T10:57:43;11.00;99.90
52415;DHT22;38340;52.964;6.086;2023-04-15T11:00:11;11.00;99.90
52415;DHT22;38340;52.964;6.086;2023-04-15T11:03:06;11.00;99.90
52415;DHT22;38340;52.964;6.086;2023-04-15T11:05:48;11.30;1.00
52415;DHT22;38340;52.964;6.086;2023-04-15T11:08:14;11.40;99.90
52415;DHT22;38340;52.964;6.086;2023-04-15T11:15:43;11.10;99.90
52415;DHT22;38340;52.964;6.086;2023-04-15T11:20:43;11.10;1.00
52415;DHT22;38340;52.964;6.086;2023-04-15T11:23:10;11.20;1.00
52415;DHT22;38340;52.964;6.086;2023-04-15T11:25:36;11.20;74.30
52415;DHT22;38340;52.964;6.086;2023-04-15T11:28:03;11.10;1.00
52415;DHT22;38340;52.964;6.086;2023-04-15T11:30:30;10.80;99.90
52415;DHT22;38340;52.964;6.086;2023-04-15T11:33:02;10.70;99.90
52415;DHT22;38340;52.964;6.086;2023-04-15T11:35:29;10.70;99.90
52415;DHT22;38340;52.964;6.086;2023-04-15T11:37:54;10.80;99.90
52415;DHT22;38340;52.964;6.086;2023-04-15T11:40:29;10.80;99.90
52415;DHT22;38340;52.964;6.086;2023-04-15T11:45:58;10.80;92.90
52415;DHT22;38340;52.964;6.086;2023-04-15T11:48:44;10.80;99.90
52415;DHT22;38340;52.964;6.086;2023-04-15T11:51:10;10.60;99.90
52415;DHT22;38340;52.964;6.086;2023-04-15T11:53:44;10.50;99.90
52415;DHT22;38340;52.964;6.086;2023-04-15T11:56:21;10.30;99.90
52415;DHT22;38340;52.964;6.086;2023-04-15T11:58:48;10.40;1.00
52415;DHT22;38340;52.964;6.086;2023-04-15T12:01:16;10.30;1.00
52415;DHT22;38340;52.964;6.086;2023-04-15T12:03:45;10.30;1.00
52415;DHT22;38340;52.964;6.086;2023-04-15T12:06:18;10.20;1.00
52415;DHT22;38340;52.964;6.086;2023-04-15T12:16:26;10.20;99.90
52415;DHT22;38340;52.964;6.086;2023-04-15T12:18:54;10.30;99.90
52415;DHT22;38340;52.964;6.086;2023-04-15T12:21:25;10.40;1.00
52415;DHT22;38340;52.964;6.086;2023-04-15T12:23:53;10.30;1.00
52415;DHT22;38340;52.964;6.086;2023-04-15T12:26:30;10.30;32.30
52415;DHT22;38340;52.964;6.086;2023-04-15T12:29:10;10.40;1.00
52415;DHT22;38340;52.964;6.086;2023-04-15T12:31:38;10.50;99.90
52415;DHT22;38340;52.964;6.086;2023-04-15T12:34:11;10.50;99.90
52415;DHT22;38340;52.964;6.086;2023-04-15T12:36:36;10.70;99.90
52415;DHT22;38340;52.964;6.086;2023-04-15T12:39:03;10.70;99.90
52415;DHT22;38340;52.964;6.086;2023-04-15T12:41:29;10.70;99.90
52415;DHT22;38340;52.964;6.086;2023-04-15T12:43:55;10.80;99.90
52415;DHT22;38340;52.964;6.086;2023-04-15T12:46:21;10.70;99.90
52415;DHT22;38340;52.964;6.086;2023-04-15T12:48:47;10.40;99.90
52415;DHT22;38340;52.964;6.086;2023-04-15T12:51:13;10.30;1.00
52415;DHT22;38340;52.964;6.086;2023-04-15T12:53:39;10.20;1.00
52415;DHT22;38340;52.964;6.086;2023-04-15T12:56:04;9.90;2.60
52415;DHT22;38340;52.964;6.086;2023-04-15T12:58:31;9.70;99.90
52415;DHT22;38340;52.964;6.086;2023-04-15T13:00:56;9.70;99.90
52415;DHT22;38340;52.964;6.086;2023-04-15T13:03:22;9.60;99.90
52415;DHT22;38340;52.964;6.086;2023-04-15T13:05:48;9.70;99.90
52415;DHT22;38340;52.964;6.086;2023-04-15T13:08:14;9.80;99.90
52415;DHT22;38340;52.964;6.086;2023-04-15T13:10:40;9.80;99.90
52415;DHT22;38340;52.964;6.086;2023-04-15T13:13:07;9.90;99.90
52415;DHT22;38340;52.964;6.086;2023-04-15T13:15:33;10.10;99.90
52415;DHT22;38340;52.964;6.086;2023-04-15T13:17:59;10.20;99.90
52415;DHT22;38340;52.964;6.086;2023-04-15T13:20:25;10.00;91.30
52415;DHT22;38340;52.964;6.086;2023-04-15T13:22:54;10.00;99.90
52415;DHT22;38340;52.964;6.086;2023-04-15T13:25:20;9.90;99.90
52415;DHT22;38340;52.964;6.086;2023-04-15T13:27:45;9.80;99.90
52415;DHT22;38340;52.964;6.086;2023-04-15T13:30:11;9.80;99.90
52415;DHT22;38340;52.964;6.086;2023-04-15T13:32:37;9.70;99.90
52415;DHT22;38340;52.964;6.086;2023-04-15T13:35:03;9.80;99.90
52415;DHT22;38340;52.964;6.086;2023-04-15T13:37:30;9.80;99.90
52415;DHT22;38340;52.964;6.086;2023-04-15T13:39:56;10.00;99.90
52415;DHT22;38340;52.964;6.086;2023-04-15T13:42:22;10.00;99.90
52415;DHT22;38340;52.964;6.086;2023-04-15T13:44:51;9.80;99.90
52415;DHT22;38340;52.964;6.086;2023-04-15T13:47:20;9.60;99.90
52415;DHT22;38340;52.964;6.086;2023-04-15T13:49:46;9.50;99.90
52415;DHT22;38340;52.964;6.086;2023-04-15T13:52:12;9.40;99.90
52415;DHT22;38340;52.964;6.086;2023-04-15T13:54:38;9.40;99.90
52415;DHT22;38340;52.964;6.086;2023-04-15T13:57:05;9.40;99.90
52415;DHT22;38340;52.964;6.086;2023-04-15T13:59:32;9.50;99.90
52415;DHT22;38340;52.964;6.086;2023-04-15T14:01:59;9.60;99.90
52415;DHT22;38340;52.964;6.086;2023-04-15T14:04:25;9.80;99.90
52415;DHT22;38340;52.964;6.086;2023-04-15T14:06:50;9.90;99.90
52415;DHT22;38340;52.964;6.086;2023-04-15T14:09:16;10.00;99.90
52415;DHT22;38340;52.964;6.086;2023-04-15T14:11:42;10.00;99.90
52415;DHT22;38340;52.964;6.086;2023-04-15T14:14:07;9.70;99.90
52415;DHT22;38340;52.964;6.086;2023-04-15T14:16:34;9.80;99.90
52415;DHT22;38340;52.964;6.086;2023-04-15T14:19:01;9.70;99.90
52415;DHT22;38340;52.964;6.086;2023-04-15T14:21:26;9.70;99.90
52415;DHT22;38340;52.964;6.086;2023-04-15T14:23:53;9.70;99.90
52415;DHT22;38340;52.964;6.086;2023-04-15T14:26:19;9.60;99.90
52415;DHT22;38340;52.964;6.086;2023-04-15T14:28:45;9.50;99.90
52415;DHT22;38340;52.964;6.086;2023-04-15T14:31:11;9.40;99.90
52415;DHT22;38340;52.964;6.086;2023-04-15T14:33:36;9.40;99.90
52415;DHT22;38340;52.964;6.086;2023-04-15T14:36:02;9.30;99.90
52415;DHT22;38340;52.964;6.086;2023-04-15T14:38:28;9.20;99.90
52415;DHT22;38340;52.964;6.086;2023-04-15T14:40:54;9.20;99.90
52415;DHT22;38340;52.964;6.086;2023-04-15T14:43:20;9.10;99.90
52415;DHT22;38340;52.964;6.086;2023-04-15T14:45:46;9.20;99.90
52415;DHT22;38340;52.964;6.086;2023-04-15T14:48:12;9.20;99.90
52415;DHT22;38340;52.964;6.086;2023-04-15T14:50:39;9.20;99.90
52415;DHT22;38340;52.964;6.086;2023-04-15T14:53:04;9.20;99.90
52415;DHT22;38340;52.964;6.086;2023-04-15T14:55:30;9.10;99.90
52415;DHT22;38340;52.964;6.086;2023-04-15T14:57:56;9.20;99.90
52415;DHT22;38340;52.964;6.086;2023-04-15T15:00:21;9.20;99.90
52415;DHT22;38340;52.964;6.086;2023-04-15T15:02:47;9.20;99.90
52415;DHT22;38340;52.964;6.086;2023-04-15T15:05:13;9.20;99.90
52415;DHT22;38340;52.964;6.086;2023-04-15T15:07:39;9.00;99.90
52415;DHT22;38340;52.964;6.086;2023-04-15T15:10:07;8.90;99.90
52415;DHT22;38340;52.964;6.086;2023-04-15T15:12:33;8.90;99.90
52415;DHT22;38340;52.964;6.086;2023-04-15T15:14:59;8.90;99.90
52415;DHT22;38340;52.964;6.086;2023-04-15T15:17:25;8.80;99.90
52415;DHT22;38340;52.964;6.086;2023-04-15T15:19:50;8.80;99.90
52415;DHT22;38340;52.964;6.086;2023-04-15T15:22:16;8.70;99.90
52415;DHT22;38340;52.964;6.086;2023-04-15T15:24:42;8.70;99.90
52415;DHT22;38340;52.964;6.086;2023-04-15T15:27:08;8.70;99.90
52415;DHT22;38340;52.964;6.086;2023-04-15T15:29:33;8.70;99.90
52415;DHT22;38340;52.964;6.086;2023-04-15T15:31:59;8.60;99.90
52415;DHT22;38340;52.964;6.086;2023-04-15T15:34:25;8.60;99.90
52415;DHT22;38340;52.964;6.086;2023-04-15T15:36:52;8.60;99.90
52415;DHT22;38340;52.964;6.086;2023-04-15T15:39:18;8.60;99.90
52415;DHT22;38340;52.964;6.086;2023-04-15T15:41:43;8.60;99.90
52415;DHT22;38340;52.964;6.086;2023-04-15T15:44:09;8.60;99.90
52415;DHT22;38340;52.964;6.086;2023-04-15T15:46:35;8.70;99.90
52415;DHT22;38340;52.964;6.086;2023-04-15T15:49:02;8.60;99.90
52415;DHT22;38340;52.964;6.086;2023-04-15T15:51:28;8.60;99.90
52415;DHT22;38340;52.964;6.086;2023-04-15T15:53:54;8.60;99.90
52415;DHT22;38340;52.964;6.086;2023-04-15T15:56:20;8.60;99.90
52415;DHT22;38340;52.964;6.086;2023-04-15T15:58:45;8.80;99.90
52415;DHT22;38340;52.964;6.086;2023-04-15T16:01:11;8.80;99.90